Aviation Digital Data Service (ADDS)

Output produced by TAFs form (0422 UTC 02 October 2014)
found at http://www.aviationweather.gov/adds/tafs/
 
KPSF 012359Z 0200/0224 03006KT P6SM SCT015 OVC035 
     TEMPO 0200/0204 5SM -SHRA BR BKN015 OVC035 
     FM020400 VRB03KT 4SM BR VCSH OVC007 
     FM020700 01005KT 2SM BR OVC005 
     FM021500 02005KT P6SM OVC025 
     FM022000 10005KT P6SM SCT025 OVC050